createdAt,value
2022-11-07T00:01:00.501Z,5
2022-11-07T00:07:27.579Z,5
2022-11-07T00:13:38.197Z,5
2022-11-07T00:19:48.881Z,6
2022-11-07T00:25:59.562Z,6
2022-11-07T00:32:02.017Z,5
2022-11-07T00:38:12.699Z,6
2022-11-07T00:44:23.368Z,5
2022-11-07T00:50:34.002Z,7
2022-11-07T00:56:44.716Z,5
2022-11-07T01:03:03.545Z,7
2022-11-07T01:09:14.247Z,5
2022-11-07T01:15:25.003Z,5
2022-11-07T01:22:49.662Z,5
2022-11-07T01:27:54.471Z,4
2022-11-07T01:34:21.454Z,6
2022-11-07T01:40:32.474Z,5
2022-11-07T01:46:59.174Z,4
2022-11-07T01:52:04.033Z,5
2022-11-07T01:57:08.615Z,5
2022-11-07T02:04:33.405Z,5
2022-11-07T02:11:58.257Z,5
2022-11-07T02:19:31.198Z,4
2022-11-07T02:25:41.874Z,5
2022-11-07T02:30:46.631Z,4
2022-11-07T02:35:51.294Z,4
2022-11-07T02:41:45.208Z,4
2022-11-07T02:49:59.569Z,4
2022-11-07T02:57:24.337Z,4
2022-11-07T03:04:49.366Z,4
2022-11-07T03:13:28.102Z,4
2022-11-07T03:19:46.960Z,4
2022-11-07T03:27:11.734Z,4
2022-11-07T03:34:36.569Z,4
2022-11-07T03:40:47.305Z,7
2022-11-07T03:45:51.935Z,7
2022-11-07T03:50:56.691Z,7
2022-11-07T03:57:07.318Z,7
2022-11-07T04:03:18.206Z,6
2022-11-07T04:09:28.740Z,6
2022-11-07T04:15:39.301Z,6
2022-11-07T04:21:49.992Z,5
2022-11-07T04:28:00.695Z,6
2022-11-07T04:34:11.307Z,4
2022-11-07T04:40:21.984Z,5
2022-11-07T04:46:24.491Z,6
2022-11-07T04:52:35.326Z,6
2022-11-07T04:58:45.789Z,5
2022-11-07T05:04:56.476Z,5
2022-11-07T05:10:12.227Z,6
2022-11-07T05:16:20.047Z,5
2022-11-07T05:22:30.805Z,5
2022-11-07T05:28:41.365Z,6
2022-11-07T05:34:52.040Z,5
2022-11-07T05:42:16.860Z,6
2022-11-07T05:48:19.328Z,4
2022-11-07T05:54:29.972Z,6
2022-11-07T06:00:40.810Z,8
2022-11-07T06:06:51.306Z,7
2022-11-07T06:13:02.064Z,5
2022-11-07T06:18:06.707Z,5
2022-11-07T06:24:17.366Z,5
2022-11-07T06:30:28.062Z,4
2022-11-07T06:36:38.799Z,4
2022-11-07T06:42:49.388Z,5
2022-11-07T06:48:51.845Z,5
2022-11-07T06:55:02.606Z,5
2022-11-07T07:01:13.452Z,8
2022-11-07T07:07:23.807Z,6
2022-11-07T07:13:34.554Z,5
2022-11-07T07:19:45.160Z,4
2022-11-07T07:25:55.832Z,4
2022-11-07T07:32:06.606Z,6
2022-11-07T07:38:33.591Z,6
2022-11-07T07:44:44.333Z,5
2022-11-07T07:50:46.877Z,8
2022-11-07T07:56:57.355Z,9
2022-11-07T08:03:08.045Z,6
2022-11-07T08:09:18.781Z,6
2022-11-07T08:15:29.360Z,7
2022-11-07T08:21:40.044Z,8
2022-11-07T08:27:50.780Z,8
2022-11-07T08:34:01.418Z,8
2022-11-07T08:40:11.998Z,9
2022-11-07T08:47:28.649Z,5
2022-11-07T08:53:39.302Z,9
2022-11-07T08:59:49.956Z,8
2022-11-07T09:06:00.651Z,13
2022-11-07T09:12:11.271Z,9
2022-11-07T09:18:21.948Z,12
2022-11-07T09:24:32.638Z,7
2022-11-07T09:30:43.287Z,10
2022-11-07T09:36:53.960Z,9
2022-11-07T09:44:31.651Z,7
2022-11-07T09:51:35.359Z,7
2022-11-07T09:59:00.159Z,7
2022-11-07T10:05:10.911Z,7
2022-11-07T10:10:31.931Z,3
2022-11-07T10:16:42.621Z,6
2022-11-07T10:22:53.288Z,6
2022-11-07T10:29:03.961Z,6
2022-11-07T10:34:08.650Z,6
2022-11-07T10:40:19.352Z,7
2022-11-07T10:46:29.984Z,8
2022-11-07T10:52:32.452Z,7
2022-11-07T10:59:57.299Z,8
2022-11-07T11:06:07.921Z,8
2022-11-07T11:12:18.599Z,10
2022-11-07T11:18:29.275Z,9
2022-11-07T11:24:39.941Z,8
2022-11-07T11:30:50.569Z,9
2022-11-07T11:37:01.267Z,12
2022-11-07T11:43:11.944Z,9
2022-11-07T11:49:14.419Z,13
2022-11-07T11:55:25.117Z,8
2022-11-07T12:01:35.725Z,7
2022-11-07T12:07:46.408Z,8
2022-11-07T12:13:57.091Z,8
2022-11-07T12:20:07.730Z,8
2022-11-07T12:26:18.404Z,8
2022-11-07T12:32:29.089Z,8
2022-11-07T12:38:39.886Z,8
2022-11-07T12:43:52.789Z,8
2022-11-07T12:50:03.342Z,9
2022-11-07T12:56:05.793Z,6
2022-11-07T13:02:16.629Z,9
2022-11-07T13:08:30.984Z,7
2022-11-07T13:14:37.788Z,8
2022-11-07T13:20:48.474Z,8
2022-11-07T13:26:59.232Z,7
2022-11-07T13:33:09.836Z,8
2022-11-07T13:39:20.448Z,8
2022-11-07T13:45:31.174Z,8
2022-11-07T13:51:33.602Z,10
2022-11-07T13:57:44.281Z,8
2022-11-07T14:03:54.952Z,10
2022-11-07T14:10:05.628Z,10
2022-11-07T14:16:16.270Z,10
2022-11-07T14:22:26.960Z,10
2022-11-07T14:28:37.597Z,6
2022-11-07T14:34:48.259Z,13
2022-11-07T14:40:59.030Z,8
2022-11-07T14:46:12.852Z,7
2022-11-07T14:54:34.400Z,10
2022-11-07T15:00:45.114Z,9
2022-11-07T15:06:55.864Z,8
2022-11-07T15:12:08.651Z,9
2022-11-07T15:18:27.804Z,8
2022-11-07T15:25:52.305Z,8
2022-11-07T15:33:17.146Z,8
2022-11-07T15:40:41.933Z,8
2022-11-07T15:45:46.642Z,5
2022-11-07T15:51:57.295Z,11
2022-11-07T15:57:02.032Z,9
2022-11-07T16:02:15.035Z,8
2022-11-07T16:07:19.672Z,9
2022-11-07T16:13:30.346Z,8
2022-11-07T16:19:41.030Z,9
2022-11-07T16:24:45.799Z,10
2022-11-07T16:31:12.814Z,8
2022-11-07T16:37:23.433Z,8
2022-11-07T16:43:34.315Z,8
2022-11-07T16:50:58.923Z,8
2022-11-07T16:56:03.661Z,7
2022-11-07T17:02:17.888Z,8
2022-11-07T17:07:27.349Z,8
2022-11-07T17:12:31.958Z,7
2022-11-07T17:18:42.604Z,9
2022-11-07T17:24:53.307Z,6
2022-11-07T17:31:03.935Z,7
2022-11-07T17:37:30.994Z,7
2022-11-07T17:43:41.707Z,7
2022-11-07T17:49:52.331Z,6
2022-11-07T17:56:03.033Z,6
2022-11-07T18:02:13.835Z,6
2022-11-07T18:08:31.391Z,7
2022-11-07T18:14:26.799Z,7
2022-11-07T18:20:37.480Z,8
2022-11-07T18:26:48.149Z,18
2022-11-07T18:32:58.799Z,10
2022-11-07T18:39:09.519Z,14
2022-11-07T18:45:20.161Z,10
2022-11-07T18:51:30.768Z,14
2022-11-07T18:57:41.493Z,10
2022-11-07T19:03:43.949Z,14
2022-11-07T19:09:54.593Z,8
2022-11-07T19:16:05.279Z,7
2022-11-07T19:21:09.978Z,8
2022-11-07T19:27:20.652Z,9
2022-11-07T19:33:31.379Z,4
2022-11-07T19:39:42.006Z,15
2022-11-07T19:45:52.666Z,10
2022-11-07T19:52:03.376Z,12
2022-11-07T19:59:28.134Z,7
2022-11-07T20:06:44.891Z,8
2022-11-07T20:11:57.696Z,15
2022-11-07T20:18:08.326Z,17
2022-11-07T20:24:19.051Z,20
2022-11-07T20:30:29.721Z,15
2022-11-07T20:36:40.313Z,7
2022-11-07T20:42:50.990Z,11
2022-11-07T20:49:01.685Z,7
2022-11-07T20:55:12.337Z,7
2022-11-07T21:01:23.251Z,6
2022-11-07T21:07:25.474Z,6
2022-11-07T21:13:36.139Z,6
2022-11-07T21:19:46.779Z,5
2022-11-07T21:25:57.490Z,6
2022-11-07T21:32:08.113Z,5
2022-11-07T21:38:18.813Z,7
2022-11-07T21:44:29.488Z,6
2022-11-07T21:50:44.597Z,18
2022-11-07T21:56:50.762Z,18
2022-11-07T22:03:01.465Z,15
2022-11-07T22:09:03.922Z,17
2022-11-07T22:16:36.991Z,6
2022-11-07T22:22:47.586Z,6
2022-11-07T22:28:58.255Z,6
2022-11-07T22:36:23.048Z,6
2022-11-07T22:41:44.182Z,3
2022-11-07T22:47:54.814Z,4
2022-11-07T22:54:05.493Z,6
2022-11-07T23:00:21.517Z,3
2022-11-07T23:06:18.618Z,5
2022-11-07T23:12:29.292Z,6
2022-11-07T23:18:39.992Z,8
2022-11-07T23:24:50.616Z,3
2022-11-07T23:32:15.448Z,4
2022-11-07T23:38:34.296Z,4
2022-11-07T23:43:51.358Z,7
2022-11-07T23:50:06.052Z,7
2022-11-07T23:57:30.884Z,7
